Terminal Aerodrome Forecast
Issued by NWS Portland, OR

Home | Current Version | Previous Version | Text Only | Print | Product List | Glossary On
Versions: 1 2 3 4 5 6 7 8 9 10 11 12 13 14 15 16 17 18 19 20 21 22 23 24 25 26 27 28 29 30 31 32
000
FTUS46 KPQR 211133
TAFHIO
TAF
KHIO 211133Z 2112/2212 00000KT 1/4SM FG VV002
     FM211500 00000KT 1/2SM FG BKN004
     FM211700 VRB02KT 4SM BR OVC025
     FM211900 VRB03KT P6SM SCT035
     FM220200 00000KT P6SM SCT060=

USA.gov is the U.S. government's official web portal to all federal, state and local government web resources and services.